createdAt,value
2023-08-03T00:00:34.714Z,49.47
2023-08-03T00:01:34.781Z,49.79
2023-08-03T00:02:34.820Z,49.95
2023-08-03T00:03:34.733Z,56.40
2023-08-03T00:04:34.720Z,49.95
2023-08-03T00:05:34.663Z,49.79
2023-08-03T00:06:34.764Z,49.79
2023-08-03T00:07:34.628Z,49.63
2023-08-03T00:08:34.641Z,49.63
2023-08-03T00:09:34.625Z,49.95
2023-08-03T00:10:34.597Z,49.63
2023-08-03T00:11:34.560Z,50.11
2023-08-03T00:12:35.556Z,49.63
2023-08-03T00:13:34.565Z,49.31
2023-08-03T00:14:34.531Z,49.31
2023-08-03T00:15:34.561Z,49.63
2023-08-03T00:16:34.531Z,49.47
2023-08-03T00:17:34.534Z,49.47
2023-08-03T00:18:34.483Z,49.63
2023-08-03T00:19:34.486Z,49.95
2023-08-03T00:20:34.483Z,49.95
2023-08-03T00:21:34.464Z,49.79
2023-08-03T00:22:34.499Z,49.95
2023-08-03T00:23:34.433Z,49.31
2023-08-03T00:24:34.406Z,49.95
2023-08-03T00:25:34.407Z,49.63
2023-08-03T00:26:34.408Z,49.47
2023-08-03T00:27:34.410Z,49.47
2023-08-03T00:28:34.390Z,49.79
2023-08-03T00:29:34.348Z,49.79
2023-08-03T00:30:34.345Z,49.63
2023-08-03T00:31:34.427Z,49.15
2023-08-03T00:32:34.328Z,49.47
2023-08-03T00:33:35.335Z,49.95
2023-08-03T00:34:34.281Z,49.95
2023-08-03T00:35:34.293Z,49.63
2023-08-03T00:36:34.264Z,49.15
2023-08-03T00:37:34.262Z,49.79
2023-08-03T00:38:34.266Z,49.47
2023-08-03T00:39:34.296Z,49.79
2023-08-03T00:40:34.245Z,49.95
2023-08-03T00:41:34.228Z,49.47
2023-08-03T00:42:34.289Z,49.63
2023-08-03T00:43:34.219Z,50.11
2023-08-03T00:44:34.299Z,50.27
2023-08-03T00:45:34.277Z,57.04
2023-08-03T00:46:34.294Z,49.15
2023-08-03T00:47:34.152Z,49.79
2023-08-03T00:48:34.147Z,49.47
2023-08-03T00:49:34.125Z,57.04
2023-08-03T00:50:34.127Z,57.20
2023-08-03T00:51:34.096Z,56.40
2023-08-03T00:52:34.163Z,57.36
2023-08-03T00:53:34.085Z,57.20
2023-08-03T00:54:34.043Z,49.63
2023-08-03T00:55:34.082Z,57.20
2023-08-03T00:56:34.063Z,57.20
2023-08-03T00:57:34.024Z,49.31
2023-08-03T00:58:34.008Z,49.63
2023-08-03T00:59:34.010Z,49.95
2023-08-03T01:00:34.023Z,57.20
2023-08-03T01:01:33.969Z,49.95
2023-08-03T01:02:34.146Z,49.79
2023-08-03T01:03:33.953Z,57.69
2023-08-03T01:04:33.929Z,57.52
2023-08-03T01:05:33.946Z,57.36
2023-08-03T01:06:33.959Z,50.11
2023-08-03T01:07:33.906Z,57.36
2023-08-03T01:08:33.921Z,49.95
2023-08-03T01:09:33.871Z,57.20
2023-08-03T01:10:33.952Z,49.95
2023-08-03T01:11:33.852Z,49.63
2023-08-03T01:12:33.847Z,49.95
2023-08-03T01:13:33.829Z,49.79
2023-08-03T01:14:33.819Z,49.47
2023-08-03T01:15:33.838Z,49.95
2023-08-03T01:16:33.803Z,49.95
2023-08-03T01:17:33.841Z,49.95
2023-08-03T01:18:33.782Z,55.59
2023-08-03T01:19:33.762Z,58.97
2023-08-03T01:20:33.750Z,56.24
2023-08-03T01:21:33.740Z,56.24
2023-08-03T01:22:33.720Z,60.59
2023-08-03T01:23:33.716Z,59.78
2023-08-03T01:24:33.709Z,54.14
2023-08-03T01:25:33.722Z,56.88
2023-08-03T01:26:33.687Z,55.11
2023-08-03T01:27:33.661Z,53.82
2023-08-03T01:28:33.671Z,56.40
2023-08-03T01:29:33.630Z,57.52
2023-08-03T01:30:33.730Z,56.40
2023-08-03T01:31:33.660Z,54.14
2023-08-03T01:32:33.650Z,56.56
2023-08-03T01:33:33.627Z,57.36
2023-08-03T01:34:33.581Z,57.04
2023-08-03T01:35:33.599Z,49.79
2023-08-03T01:36:33.581Z,57.52
2023-08-03T01:37:33.550Z,49.63
2023-08-03T01:38:33.544Z,57.20
2023-08-03T01:39:33.543Z,49.47
2023-08-03T01:40:33.516Z,49.79
2023-08-03T01:41:33.515Z,49.47
2023-08-03T01:42:33.502Z,58.33
2023-08-03T01:43:33.491Z,60.75
2023-08-03T01:44:33.454Z,67.35
2023-08-03T01:45:33.449Z,59.78
2023-08-03T01:46:33.481Z,57.85
2023-08-03T01:48:05.338Z,49.31
2023-08-03T01:48:34.063Z,57.20
2023-08-03T01:49:33.445Z,66.71
2023-08-03T01:50:33.401Z,59.78
2023-08-03T01:51:33.428Z,67.03
2023-08-03T01:52:33.404Z,76.70
2023-08-03T01:53:33.385Z,63.33
2023-08-03T01:54:33.396Z,61.23
2023-08-03T01:55:33.378Z,56.72
2023-08-03T01:56:33.337Z,56.40
2023-08-03T01:57:33.325Z,54.46
2023-08-03T01:58:33.313Z,57.04
2023-08-03T01:59:33.320Z,57.36
2023-08-03T02:00:33.296Z,58.33
2023-08-03T02:01:33.309Z,58.17
2023-08-03T02:02:33.276Z,56.56
2023-08-03T02:03:33.238Z,70.42
2023-08-03T02:04:33.274Z,62.84
2023-08-03T02:05:33.253Z,68.16
2023-08-03T02:06:33.238Z,57.85
2023-08-03T02:07:33.193Z,62.36
2023-08-03T02:08:33.180Z,65.10
2023-08-03T02:09:33.203Z,63.81
2023-08-03T02:10:33.159Z,58.97
2023-08-03T02:11:33.158Z,59.46
2023-08-03T02:12:33.158Z,54.30
2023-08-03T02:13:33.140Z,65.90
2023-08-03T02:14:33.141Z,67.19
2023-08-03T02:15:33.141Z,62.68
2023-08-03T02:16:33.146Z,66.87
2023-08-03T02:17:33.071Z,65.42
2023-08-03T02:18:33.105Z,67.51
2023-08-03T02:19:33.069Z,61.39
2023-08-03T02:20:33.058Z,61.71
2023-08-03T02:21:33.072Z,65.58
2023-08-03T02:22:33.008Z,63.00
2023-08-03T02:23:33.040Z,66.06
2023-08-03T02:24:33.003Z,58.33
2023-08-03T02:25:32.990Z,60.26
2023-08-03T02:26:33.031Z,61.07
2023-08-03T02:27:32.950Z,61.55
2023-08-03T02:28:32.976Z,60.59
2023-08-03T02:29:32.957Z,68.00
2023-08-03T02:30:32.928Z,64.45
2023-08-03T02:31:32.950Z,64.94
2023-08-03T02:32:32.936Z,60.26
2023-08-03T02:33:32.951Z,60.91
2023-08-03T02:34:32.870Z,70.42
2023-08-03T02:35:32.896Z,59.46
2023-08-03T02:36:32.907Z,68.48
2023-08-03T02:37:32.844Z,59.46
2023-08-03T02:38:32.847Z,58.01
2023-08-03T02:39:32.848Z,61.71
2023-08-03T02:40:32.835Z,55.27
2023-08-03T02:41:32.865Z,56.72
2023-08-03T02:42:32.804Z,57.36
2023-08-03T02:43:32.758Z,56.07
2023-08-03T02:44:32.785Z,65.42
2023-08-03T02:45:32.772Z,57.36
2023-08-03T02:46:32.761Z,60.42
2023-08-03T02:47:32.784Z,75.89
2023-08-03T02:48:32.710Z,58.33
2023-08-03T02:49:32.773Z,62.04
2023-08-03T02:50:32.696Z,60.42
2023-08-03T02:51:32.739Z,60.26
2023-08-03T02:52:32.674Z,61.55
2023-08-03T02:53:32.698Z,58.97
2023-08-03T02:54:32.664Z,69.29
2023-08-03T02:55:32.654Z,61.07
2023-08-03T02:56:32.629Z,60.91
2023-08-03T02:57:32.677Z,58.17
2023-08-03T02:58:32.592Z,59.30
2023-08-03T02:59:32.599Z,62.84
2023-08-03T03:00:32.608Z,61.23
2023-08-03T03:01:32.643Z,55.91
2023-08-03T03:02:32.644Z,60.91
2023-08-03T03:03:32.648Z,66.55
2023-08-03T03:04:32.561Z,60.75
2023-08-03T03:05:32.534Z,60.59
2023-08-03T03:06:32.554Z,62.52
2023-08-03T03:07:32.486Z,64.94
2023-08-03T03:08:32.512Z,65.74
2023-08-03T03:09:32.531Z,61.07
2023-08-03T03:10:32.467Z,65.74
2023-08-03T03:11:32.456Z,62.20
2023-08-03T03:12:32.504Z,65.10
2023-08-03T03:13:32.474Z,62.84
2023-08-03T03:14:32.416Z,69.29
2023-08-03T03:15:32.455Z,67.68
2023-08-03T03:16:32.447Z,61.39
2023-08-03T03:17:32.456Z,68.64
2023-08-03T03:18:32.382Z,66.39
2023-08-03T03:19:32.410Z,68.64
2023-08-03T03:20:32.412Z,59.14
2023-08-03T03:21:32.329Z,69.93
2023-08-03T03:22:32.341Z,60.10
2023-08-03T03:23:32.380Z,62.84
2023-08-03T03:24:32.315Z,61.07
2023-08-03T03:25:32.288Z,62.84
2023-08-03T03:26:32.309Z,65.58
2023-08-03T03:27:32.310Z,61.39
2023-08-03T03:28:32.289Z,63.00
2023-08-03T03:29:32.257Z,64.78
2023-08-03T03:30:32.264Z,67.03
2023-08-03T03:31:32.256Z,61.07
2023-08-03T03:32:32.307Z,66.39
2023-08-03T03:33:32.226Z,67.51
2023-08-03T03:34:32.195Z,65.74
2023-08-03T03:35:32.178Z,66.87
2023-08-03T03:36:32.181Z,68.80
2023-08-03T03:37:32.186Z,66.06
2023-08-03T03:38:32.143Z,65.90
2023-08-03T03:39:32.163Z,67.84
2023-08-03T03:40:32.142Z,61.71
2023-08-03T03:41:32.120Z,67.51
2023-08-03T03:42:32.138Z,67.84
2023-08-03T03:43:32.117Z,67.03
2023-08-03T03:44:32.107Z,65.42
2023-08-03T03:45:32.070Z,63.33
2023-08-03T03:46:32.083Z,67.51
2023-08-03T03:47:32.138Z,68.48
2023-08-03T03:48:32.127Z,65.90
2023-08-03T03:49:32.085Z,64.94
2023-08-03T03:50:32.024Z,71.87
2023-08-03T03:51:31.982Z,72.03
2023-08-03T03:52:32.026Z,73.64
2023-08-03T03:53:31.998Z,67.19
2023-08-03T03:54:31.934Z,67.68
2023-08-03T03:55:31.968Z,69.29
2023-08-03T03:56:31.969Z,66.06
2023-08-03T03:57:31.925Z,68.96
2023-08-03T03:58:31.917Z,66.55
2023-08-03T03:59:32.018Z,68.00
2023-08-03T04:00:31.924Z,69.29
2023-08-03T04:01:31.955Z,67.51
2023-08-03T04:02:31.909Z,68.32
2023-08-03T04:03:31.902Z,59.94
2023-08-03T04:04:32.872Z,61.39
2023-08-03T04:05:32.887Z,64.94
2023-08-03T04:06:31.870Z,66.39
2023-08-03T04:07:31.832Z,68.48
2023-08-03T04:08:31.813Z,71.06
2023-08-03T04:09:31.814Z,63.33
2023-08-03T04:10:31.809Z,66.06
2023-08-03T04:11:31.786Z,69.61
2023-08-03T04:12:31.764Z,67.03
2023-08-03T04:13:31.733Z,69.45
2023-08-03T04:14:31.741Z,67.84
2023-08-03T04:15:31.794Z,68.32
2023-08-03T04:16:31.724Z,70.25
2023-08-03T04:17:31.761Z,71.06
2023-08-03T04:18:31.705Z,66.23
2023-08-03T04:19:31.652Z,74.44
2023-08-03T04:20:31.738Z,72.19
2023-08-03T04:21:32.680Z,69.13
2023-08-03T04:22:31.681Z,69.13
2023-08-03T04:23:31.621Z,64.45
2023-08-03T04:24:31.662Z,72.67
2023-08-03T04:25:31.627Z,70.90
2023-08-03T04:26:31.599Z,68.16
2023-08-03T04:27:31.600Z,73.15
2023-08-03T04:28:31.580Z,70.58
2023-08-03T04:29:31.631Z,68.16
2023-08-03T04:30:31.580Z,70.09
2023-08-03T04:31:31.572Z,70.09
2023-08-03T04:32:31.544Z,70.25
2023-08-03T04:33:31.552Z,67.35
2023-08-03T04:34:31.504Z,64.78
2023-08-03T04:35:31.557Z,66.39
2023-08-03T04:36:31.493Z,71.54
2023-08-03T04:37:31.470Z,72.67
2023-08-03T04:38:31.451Z,72.19
2023-08-03T04:39:31.474Z,69.61
2023-08-03T04:40:31.470Z,72.19
2023-08-03T04:41:31.402Z,68.96
2023-08-03T04:42:31.468Z,69.45
2023-08-03T04:43:31.404Z,70.09
2023-08-03T04:44:31.380Z,68.64
2023-08-03T04:45:31.395Z,67.84
2023-08-03T04:46:31.409Z,73.15
2023-08-03T04:47:31.362Z,74.60
2023-08-03T04:48:31.383Z,72.35
2023-08-03T04:49:31.348Z,72.19
2023-08-03T04:50:31.335Z,71.70
2023-08-03T04:51:31.319Z,69.93
2023-08-03T04:52:31.312Z,70.25
2023-08-03T04:53:31.282Z,72.83
2023-08-03T04:54:31.271Z,66.55
2023-08-03T04:55:31.307Z,68.16
2023-08-03T04:56:31.250Z,67.51
2023-08-03T04:57:32.223Z,78.15
2023-08-03T04:58:31.257Z,67.51
2023-08-03T04:59:31.229Z,68.64
2023-08-03T05:00:31.229Z,73.48
2023-08-03T05:01:31.253Z,72.83
2023-08-03T05:02:31.196Z,72.35
2023-08-03T05:03:31.193Z,73.15
2023-08-03T05:04:31.169Z,73.64
2023-08-03T05:05:31.134Z,74.93
2023-08-03T05:06:31.185Z,75.57
2023-08-03T05:07:31.125Z,74.44
2023-08-03T05:08:31.120Z,70.42
2023-08-03T05:09:31.124Z,66.87
2023-08-03T05:10:31.122Z,77.18
2023-08-03T05:11:31.065Z,70.58
2023-08-03T05:12:31.065Z,67.19
2023-08-03T05:13:31.094Z,71.87
2023-08-03T05:14:31.074Z,68.80
2023-08-03T05:15:31.044Z,70.42
2023-08-03T05:16:31.046Z,68.80
2023-08-03T05:17:31.089Z,69.61
2023-08-03T05:18:31.000Z,72.03
2023-08-03T05:19:31.003Z,71.70
2023-08-03T05:20:31.002Z,75.41
2023-08-03T05:21:30.940Z,67.19
2023-08-03T05:22:30.975Z,71.70
2023-08-03T05:23:30.938Z,68.64
2023-08-03T05:24:30.941Z,70.42
2023-08-03T05:25:30.933Z,69.77
2023-08-03T05:26:30.911Z,73.15
2023-08-03T05:27:30.923Z,73.64
2023-08-03T05:28:30.873Z,73.15
2023-08-03T05:29:30.889Z,73.48
2023-08-03T05:30:30.901Z,72.51
2023-08-03T05:31:30.835Z,73.32
2023-08-03T05:32:30.899Z,77.99
2023-08-03T05:33:30.894Z,76.86
2023-08-03T05:34:30.828Z,72.83
2023-08-03T05:35:30.798Z,68.80
2023-08-03T05:36:30.847Z,77.99
2023-08-03T05:37:30.792Z,72.03
2023-08-03T05:38:30.749Z,70.09
2023-08-03T05:39:30.788Z,68.32
2023-08-03T05:40:30.772Z,66.71
2023-08-03T05:41:30.721Z,69.29
2023-08-03T05:42:30.716Z,69.13
2023-08-03T05:43:30.726Z,67.51
2023-08-03T05:44:30.712Z,69.61
2023-08-03T05:45:30.696Z,71.06
2023-08-03T05:46:30.745Z,72.19
2023-08-03T05:47:30.710Z,67.19
2023-08-03T05:48:30.662Z,70.58
2023-08-03T05:49:30.654Z,68.48
2023-08-03T05:50:30.650Z,66.55
2023-08-03T05:51:30.605Z,69.45
2023-08-03T05:52:30.617Z,71.54
2023-08-03T05:53:30.620Z,72.35
2023-08-03T05:54:30.560Z,69.13
2023-08-03T05:55:30.581Z,70.42
2023-08-03T05:56:30.566Z,67.03
2023-08-03T05:57:30.534Z,69.13
2023-08-03T05:58:30.561Z,72.99
2023-08-03T05:59:30.539Z,73.96
2023-08-03T06:00:30.569Z,68.00
2023-08-03T06:01:30.537Z,70.09
2023-08-03T06:02:30.555Z,67.19
2023-08-03T06:03:30.522Z,70.58
2023-08-03T06:04:30.463Z,67.51
2023-08-03T06:05:30.476Z,68.64
2023-08-03T06:06:30.501Z,65.10
2023-08-03T06:07:30.449Z,70.09
2023-08-03T06:08:30.425Z,69.77
2023-08-03T06:09:31.637Z,64.45
2023-08-03T06:10:31.381Z,68.16
2023-08-03T06:11:30.412Z,68.48
2023-08-03T06:12:30.430Z,69.61
2023-08-03T06:13:30.356Z,67.03
2023-08-03T06:14:30.351Z,69.13
2023-08-03T06:15:30.361Z,68.64
2023-08-03T06:16:30.438Z,67.68
2023-08-03T06:17:30.370Z,72.67
2023-08-03T06:18:30.329Z,70.25
2023-08-03T06:19:30.308Z,70.42
2023-08-03T06:20:30.308Z,66.71
2023-08-03T06:21:30.315Z,68.16
2023-08-03T06:22:30.388Z,73.64
2023-08-03T06:23:30.258Z,72.51
2023-08-03T06:24:30.263Z,71.06
2023-08-03T06:25:30.255Z,68.48
2023-08-03T06:26:30.221Z,77.99
2023-08-03T06:27:30.223Z,76.22
2023-08-03T06:28:30.205Z,68.96
2023-08-03T06:29:30.190Z,68.48
2023-08-03T06:30:30.181Z,70.74
2023-08-03T06:31:30.258Z,67.68
2023-08-03T06:32:30.217Z,69.13
2023-08-03T06:33:30.129Z,68.16
2023-08-03T06:34:30.138Z,74.93
2023-08-03T06:35:30.162Z,72.83
2023-08-03T06:36:30.148Z,72.51
2023-08-03T06:37:30.082Z,66.71
2023-08-03T06:38:30.097Z,67.84
2023-08-03T06:39:30.135Z,74.77
2023-08-03T06:40:31.070Z,72.35
2023-08-03T06:41:30.071Z,67.35
2023-08-03T06:42:30.077Z,69.77
2023-08-03T06:43:30.037Z,71.87
2023-08-03T06:44:30.041Z,78.47
2023-08-03T06:45:30.065Z,71.06
2023-08-03T06:46:30.140Z,72.99
2023-08-03T06:47:29.998Z,67.68
2023-08-03T06:48:29.981Z,68.96
2023-08-03T06:49:29.997Z,73.80
2023-08-03T06:50:29.945Z,70.09
2023-08-03T06:51:30.021Z,67.51
2023-08-03T06:52:29.947Z,70.09
2023-08-03T06:53:29.943Z,70.09
2023-08-03T06:54:29.943Z,66.39
2023-08-03T06:55:29.922Z,66.55
2023-08-03T06:56:29.905Z,75.89
2023-08-03T06:57:29.897Z,78.63
2023-08-03T06:58:29.905Z,80.24
2023-08-03T06:59:29.857Z,75.73
2023-08-03T07:00:29.860Z,66.55
2023-08-03T07:01:29.889Z,68.48
2023-08-03T07:02:29.864Z,72.99
2023-08-03T07:03:29.870Z,76.70
2023-08-03T07:04:29.812Z,73.15
2023-08-03T07:05:29.842Z,73.15
2023-08-03T07:06:29.858Z,71.06
2023-08-03T07:07:29.751Z,69.77
2023-08-03T07:08:29.760Z,72.03
2023-08-03T07:09:29.768Z,74.93
2023-08-03T07:10:29.808Z,74.93
2023-08-03T07:11:29.718Z,66.55
2023-08-03T07:12:29.730Z,66.55
2023-08-03T07:13:29.731Z,68.64
2023-08-03T07:14:29.692Z,68.80
2023-08-03T07:15:29.708Z,72.99
2023-08-03T07:16:29.741Z,68.32
2023-08-03T07:17:29.691Z,70.25
2023-08-03T07:18:29.729Z,66.23
2023-08-03T07:19:29.654Z,70.58
2023-08-03T07:20:29.631Z,68.96
2023-08-03T07:21:29.620Z,73.32
2023-08-03T07:22:29.630Z,75.73
2023-08-03T07:23:29.594Z,70.74
2023-08-03T07:24:29.599Z,70.09
2023-08-03T07:25:29.597Z,67.51
2023-08-03T07:26:29.566Z,65.42
2023-08-03T07:27:29.555Z,70.74
2023-08-03T07:28:29.591Z,69.77
2023-08-03T07:29:29.553Z,68.80
2023-08-03T07:30:32.612Z,73.64
2023-08-03T07:31:30.585Z,67.51
2023-08-03T07:32:29.530Z,67.51
2023-08-03T07:33:29.472Z,71.70
2023-08-03T07:34:29.496Z,66.06
2023-08-03T07:35:29.485Z,69.13
2023-08-03T07:36:29.481Z,74.93
2023-08-03T07:37:29.477Z,71.54
2023-08-03T07:38:29.436Z,76.22
2023-08-03T07:39:29.483Z,70.90
2023-08-03T07:40:29.431Z,72.19
2023-08-03T07:41:29.388Z,74.12
2023-08-03T07:42:29.473Z,70.09
2023-08-03T07:43:29.398Z,76.38
2023-08-03T07:44:49.225Z,69.61
2023-08-03T07:46:30.432Z,71.22
2023-08-03T07:47:29.376Z,68.96
2023-08-03T07:49:01.267Z,69.45
2023-08-03T07:49:29.337Z,72.35
2023-08-03T07:50:29.351Z,72.83
2023-08-03T07:51:29.387Z,72.19
2023-08-03T07:52:29.319Z,75.41
2023-08-03T07:53:29.289Z,71.70
2023-08-03T07:54:29.289Z,79.28
2023-08-03T07:55:29.279Z,72.67
2023-08-03T07:56:29.691Z,68.32
2023-08-03T07:57:30.313Z,85.24
2023-08-03T07:58:29.246Z,69.29
2023-08-03T07:59:29.258Z,71.70
2023-08-03T08:00:29.267Z,69.13
2023-08-03T08:01:29.362Z,73.96
2023-08-03T08:02:29.221Z,62.84
2023-08-03T08:03:29.265Z,67.68
2023-08-03T08:04:29.190Z,66.71
2023-08-03T08:05:29.183Z,72.19
2023-08-03T08:06:29.264Z,63.00
2023-08-03T08:07:29.157Z,67.19
2023-08-03T08:08:29.149Z,67.03
2023-08-03T08:09:29.127Z,73.48
2023-08-03T08:10:29.110Z,76.38
2023-08-03T08:11:29.231Z,72.19
2023-08-03T08:12:29.089Z,67.51
2023-08-03T08:13:29.084Z,68.00
2023-08-03T08:14:29.066Z,68.96
2023-08-03T08:15:29.102Z,68.16
2023-08-03T08:16:29.077Z,63.49
2023-08-03T08:17:29.071Z,68.32
2023-08-03T08:18:30.466Z,77.50
2023-08-03T08:19:29.026Z,76.86
2023-08-03T08:20:29.025Z,71.70
2023-08-03T08:21:29.011Z,64.94
2023-08-03T08:22:29.273Z,71.22
2023-08-03T08:23:29.023Z,76.38
2023-08-03T08:24:29.050Z,71.06
2023-08-03T08:25:29.038Z,67.51
2023-08-03T08:26:28.996Z,69.61
2023-08-03T08:27:29.209Z,70.25
2023-08-03T08:28:29.138Z,70.90
2023-08-03T08:29:28.931Z,69.93
2023-08-03T08:30:28.925Z,74.77
2023-08-03T08:31:32.781Z,72.35
2023-08-03T08:32:29.953Z,70.74
2023-08-03T08:33:28.916Z,78.47
2023-08-03T08:34:31.195Z,72.99
2023-08-03T08:35:28.841Z,67.68
2023-08-03T08:36:28.853Z,73.15
2023-08-03T08:37:28.889Z,74.44
2023-08-03T08:38:28.822Z,76.22
2023-08-03T08:39:28.831Z,79.28
2023-08-03T08:40:28.811Z,75.57
2023-08-03T08:41:29.693Z,76.22
2023-08-03T08:42:28.777Z,71.70
2023-08-03T08:43:28.786Z,68.32
2023-08-03T08:44:28.732Z,76.22
2023-08-03T08:45:28.738Z,71.70
2023-08-03T08:46:28.830Z,68.00
2023-08-03T08:47:28.859Z,67.03
2023-08-03T08:50:32.190Z,70.09
2023-08-03T08:52:29.719Z,69.93
2023-08-03T08:53:28.745Z,71.87
2023-08-03T08:55:17.484Z,67.03
2023-08-03T08:59:32.863Z,69.13
2023-08-03T08:59:33.488Z,74.12
2023-08-03T09:00:29.589Z,67.19
2023-08-03T09:01:28.602Z,70.90
2023-08-03T09:02:28.592Z,71.06
2023-08-03T09:03:28.853Z,68.32
2023-08-03T09:04:32.489Z,73.15
2023-08-03T09:06:29.527Z,68.96
2023-08-03T09:07:28.513Z,67.68
2023-08-03T09:08:28.470Z,75.25
2023-08-03T09:09:28.478Z,69.61
2023-08-03T09:10:28.507Z,66.39
2023-08-03T09:11:28.551Z,71.38
2023-08-03T09:12:28.466Z,67.19
2023-08-03T09:13:28.513Z,65.74
2023-08-03T09:14:28.451Z,66.06
2023-08-03T09:15:28.413Z,66.23
2023-08-03T09:16:28.418Z,72.19
2023-08-03T09:17:28.487Z,70.09
2023-08-03T09:18:28.468Z,68.48
2023-08-03T09:19:28.354Z,71.54
2023-08-03T09:24:35.220Z,65.58
2023-08-03T09:25:40.312Z,69.13
2023-08-03T09:29:29.258Z,71.70
2023-08-03T09:30:36.739Z,72.19
2023-08-03T09:31:30.484Z,69.77
2023-08-03T09:32:29.337Z,74.77
2023-08-03T09:36:31.945Z,67.84
2023-08-03T09:38:29.191Z,70.25
2023-08-03T09:39:31.374Z,72.51
2023-08-03T09:40:29.114Z,74.93
2023-08-03T09:41:28.109Z,65.90
2023-08-03T09:44:29.072Z,72.83
2023-08-03T09:46:29.153Z,67.19
2023-08-03T09:47:29.929Z,66.23
2023-08-03T09:48:29.090Z,65.10
2023-08-03T09:49:28.042Z,75.09
2023-08-03T09:50:28.105Z,68.64
2023-08-03T09:51:28.002Z,67.03
2023-08-03T09:53:29.013Z,72.19
2023-08-03T09:54:27.994Z,67.35
2023-08-03T09:55:27.974Z,65.74
2023-08-03T09:56:28.026Z,69.45
2023-08-03T09:57:27.944Z,65.74
2023-08-03T09:58:27.922Z,71.22
2023-08-03T09:59:27.978Z,66.23
2023-08-03T10:00:27.955Z,67.03
2023-08-03T10:01:27.914Z,72.67
2023-08-03T10:02:27.936Z,70.09
2023-08-03T10:03:27.928Z,70.58
2023-08-03T10:04:27.887Z,72.19
2023-08-03T10:05:27.886Z,70.74
2023-08-03T10:06:27.886Z,71.22
2023-08-03T10:07:27.817Z,73.80
2023-08-03T10:08:27.805Z,68.48
2023-08-03T10:09:27.825Z,75.41
2023-08-03T10:10:27.857Z,72.67
2023-08-03T10:11:27.824Z,76.05
2023-08-03T10:12:27.772Z,75.41
2023-08-03T10:13:27.788Z,67.51
2023-08-03T10:14:27.760Z,66.71
2023-08-03T10:15:27.810Z,69.13
2023-08-03T10:16:27.791Z,65.26
2023-08-03T10:17:27.764Z,78.31
2023-08-03T10:18:49.484Z,66.39
2023-08-03T10:19:29.752Z,75.09
2023-08-03T10:20:27.689Z,66.71
2023-08-03T10:21:27.756Z,68.80
2023-08-03T10:22:27.664Z,69.29
2023-08-03T10:23:27.680Z,69.61
2023-08-03T10:24:27.669Z,68.00
2023-08-03T10:25:27.630Z,75.41
2023-08-03T10:26:27.632Z,82.02
2023-08-03T10:27:27.649Z,69.13
2023-08-03T10:28:27.619Z,65.42
2023-08-03T10:29:27.590Z,67.35
2023-08-03T10:30:27.636Z,66.23
2023-08-03T10:31:27.603Z,77.67
2023-08-03T10:32:27.616Z,72.83
2023-08-03T10:33:27.579Z,74.60
2023-08-03T10:34:27.557Z,69.13
2023-08-03T10:35:27.518Z,76.54
2023-08-03T10:36:27.684Z,72.51
2023-08-03T10:37:27.532Z,69.61
2023-08-03T10:38:27.527Z,66.71
2023-08-03T10:39:27.501Z,66.39
2023-08-03T10:40:27.518Z,75.25
2023-08-03T10:41:27.487Z,67.19
2023-08-03T10:42:27.513Z,69.45
2023-08-03T10:43:27.457Z,70.58
2023-08-03T10:44:27.487Z,78.63
2023-08-03T10:45:27.583Z,70.58
2023-08-03T10:49:06.554Z,72.67
2023-08-03T10:50:06.419Z,69.13
2023-08-03T10:51:06.392Z,70.42
2023-08-03T10:52:06.375Z,65.42
2023-08-03T10:53:06.367Z,72.03
2023-08-03T10:54:06.374Z,70.74
2023-08-03T10:55:06.360Z,68.00
2023-08-03T10:56:06.438Z,68.64
2023-08-03T10:57:06.384Z,73.96
2023-08-03T10:58:06.328Z,66.87
2023-08-03T10:59:06.330Z,77.83
2023-08-03T11:00:06.275Z,62.68
2023-08-03T11:01:38.545Z,68.64
2023-08-03T11:02:06.443Z,66.06
2023-08-03T11:03:06.396Z,64.78
2023-08-03T11:04:07.409Z,63.65
2023-08-03T11:05:08.639Z,66.71
2023-08-03T11:06:07.215Z,68.16
2023-08-03T11:07:06.276Z,66.87
2023-08-03T11:08:06.262Z,68.80
2023-08-03T11:09:06.202Z,72.99
2023-08-03T11:10:06.184Z,68.48
2023-08-03T11:11:06.231Z,71.54
2023-08-03T11:12:06.194Z,69.45
2023-08-03T11:13:06.147Z,67.35
2023-08-03T11:14:06.178Z,66.87
2023-08-03T11:15:06.169Z,71.87
2023-08-03T11:16:06.136Z,71.38
2023-08-03T11:17:06.126Z,67.35
2023-08-03T11:18:06.185Z,67.51
2023-08-03T11:19:06.100Z,75.89
2023-08-03T11:20:06.177Z,66.55
2023-08-03T11:21:06.088Z,64.13
2023-08-03T11:22:06.138Z,65.26
2023-08-03T11:23:06.155Z,65.90
2023-08-03T11:24:06.057Z,75.25
2023-08-03T11:25:06.032Z,64.94
2023-08-03T11:26:06.040Z,65.26
2023-08-03T11:27:06.040Z,68.48
2023-08-03T11:28:06.045Z,67.68
2023-08-03T11:29:05.989Z,65.26
2023-08-03T11:30:05.983Z,71.87
2023-08-03T11:31:06.027Z,70.90
2023-08-03T11:32:06.025Z,68.16
2023-08-03T11:33:07.050Z,68.96
2023-08-03T11:34:05.992Z,64.94
2023-08-03T11:35:05.990Z,66.55
2023-08-03T11:36:05.939Z,70.09
2023-08-03T11:37:05.945Z,65.74
2023-08-03T11:38:05.914Z,72.19
2023-08-03T11:39:05.884Z,67.35
2023-08-03T11:40:05.894Z,70.25
2023-08-03T11:41:07.103Z,68.48
2023-08-03T11:42:06.851Z,68.96
2023-08-03T11:43:05.887Z,74.28
2023-08-03T11:44:05.888Z,67.03
2023-08-03T11:45:05.831Z,68.00
2023-08-03T11:46:05.919Z,66.55
2023-08-03T11:47:05.851Z,68.48
2023-08-03T11:48:05.832Z,76.54
2023-08-03T11:49:05.791Z,74.28
2023-08-03T11:50:05.848Z,66.23
2023-08-03T11:51:05.783Z,72.83
2023-08-03T11:52:05.769Z,75.41
2023-08-03T11:53:18.729Z,68.80
2023-08-03T11:54:07.734Z,73.64
2023-08-03T11:55:05.722Z,67.19
2023-08-03T11:56:05.766Z,77.99
2023-08-03T11:57:05.766Z,68.32
2023-08-03T11:58:05.688Z,64.29
2023-08-03T11:59:05.767Z,65.74
2023-08-03T12:00:05.682Z,69.45
2023-08-03T12:01:06.106Z,64.29
2023-08-03T12:02:05.774Z,69.13
2023-08-03T12:03:05.734Z,72.83
2023-08-03T12:04:14.380Z,72.35
2023-08-03T12:05:16.403Z,71.70
2023-08-03T12:06:10.173Z,72.51
2023-08-03T12:08:07.134Z,67.03
2023-08-03T12:09:06.635Z,68.00
2023-08-03T12:10:05.620Z,71.87
2023-08-03T12:11:05.644Z,68.00
2023-08-03T12:12:05.618Z,67.51
2023-08-03T12:13:05.541Z,68.96
2023-08-03T12:14:05.540Z,70.90
2023-08-03T12:15:05.570Z,63.33
2023-08-03T12:16:05.486Z,65.58
2023-08-03T12:17:05.677Z,70.09
2023-08-03T12:18:05.535Z,69.61
2023-08-03T12:19:05.548Z,64.78
2023-08-03T12:20:05.517Z,71.06
2023-08-03T12:21:05.449Z,64.13
2023-08-03T12:22:05.538Z,68.48
2023-08-03T12:23:05.424Z,68.16
2023-08-03T12:24:05.873Z,65.58
2023-08-03T12:25:05.466Z,65.10
2023-08-03T12:26:05.465Z,63.49
2023-08-03T12:27:10.064Z,71.38
2023-08-03T12:28:06.423Z,65.58
2023-08-03T12:29:09.057Z,66.23
2023-08-03T12:30:06.410Z,66.71
2023-08-03T12:31:05.395Z,72.19
2023-08-03T12:32:05.317Z,62.84
2023-08-03T12:33:05.392Z,66.23
2023-08-03T12:34:05.410Z,74.12
2023-08-03T12:35:05.323Z,67.35
2023-08-03T12:36:05.306Z,65.74
2023-08-03T12:37:05.337Z,66.06
2023-08-03T12:39:05.979Z,66.87
2023-08-03T12:40:05.297Z,65.10
2023-08-03T12:41:05.287Z,68.80
2023-08-03T12:42:05.220Z,68.48
2023-08-03T12:43:05.243Z,66.23
2023-08-03T12:44:06.240Z,64.29
2023-08-03T12:45:05.290Z,65.58
2023-08-03T12:46:05.234Z,67.84
2023-08-03T12:47:08.980Z,68.16
2023-08-03T12:48:16.672Z,63.00
2023-08-03T12:49:07.223Z,68.16
2023-08-03T12:50:05.275Z,66.39
2023-08-03T12:51:05.127Z,62.84
2023-08-03T12:52:05.127Z,65.74
2023-08-03T12:53:05.185Z,67.51
2023-08-03T12:54:05.135Z,66.39
2023-08-03T12:55:05.094Z,67.84
2023-08-03T12:56:06.073Z,65.10
2023-08-03T12:57:05.117Z,76.22
2023-08-03T12:58:05.064Z,82.18
2023-08-03T12:59:05.122Z,70.25
2023-08-03T13:00:05.063Z,67.03
2023-08-03T13:01:05.071Z,68.16
2023-08-03T13:02:05.054Z,76.22
2023-08-03T13:03:05.103Z,70.58
2023-08-03T13:04:05.018Z,69.61
2023-08-03T13:05:05.124Z,71.22
2023-08-03T13:06:05.020Z,75.41
2023-08-03T13:07:05.043Z,71.06
2023-08-03T13:08:06.067Z,68.16
2023-08-03T13:09:04.970Z,74.93
2023-08-03T13:10:04.978Z,67.51
2023-08-03T13:11:04.938Z,77.50
2023-08-03T13:12:04.940Z,73.96
2023-08-03T13:13:04.891Z,74.44
2023-08-03T13:14:05.963Z,74.44
2023-08-03T13:15:04.888Z,69.13
2023-08-03T13:16:04.879Z,69.45
2023-08-03T13:17:04.923Z,71.38
2023-08-03T13:18:05.057Z,72.03
2023-08-03T13:19:04.903Z,77.99
2023-08-03T13:20:04.833Z,68.64